WZZ5678 LHBP-LGTS
Flight info
| Callsign | WZZ5678 |
|---|---|
| Flight time | N/A |
| Altitude | 37000 |
| Route | FAHAZ DCT KEROP DCT TISAK DCT OKLOP DCT RAXAD/N0361F190 L617 MAKED P36 ALIKO |
| Aircraft | A21N/M-SDE2E3FGHIRWXY/LB1 |
Departure
| Time | N/A |
|---|---|
| Airport | Budapest Liszt Ferenc International Airport (LHBP) |
Arrival
| Time | 2026-05-01 12:09 |
|---|---|
| Airport | Thessaloniki Macedonia International Airport (LGTS) |
| Time | Latitude | Longitude | Altitude | Speed | Heading |
|---|---|---|---|---|---|
| 2026-05-01 11:44 | 41.87433 | 22.34387 | 31952 ft | 473 kts | 172° |
| 2026-05-01 11:45 | 41.84193 | 22.35141 | 31596 ft | 467 kts | 172° |
| 2026-05-01 11:45 | 41.80988 | 22.35886 | 31228 ft | 462 kts | 172° |
| 2026-05-01 11:45 | 41.77841 | 22.36619 | 30750 ft | 458 kts | 172° |
| 2026-05-01 11:45 | 41.74707 | 22.37349 | 30210 ft | 455 kts | 172° |
| 2026-05-01 11:46 | 41.71592 | 22.38075 | 29621 ft | 451 kts | 172° |
| 2026-05-01 11:46 | 41.68511 | 22.38792 | 29034 ft | 448 kts | 172° |
| 2026-05-01 11:46 | 41.65422 | 22.39511 | 28465 ft | 444 kts | 172° |
| 2026-05-01 11:46 | 41.62357 | 22.40223 | 27921 ft | 439 kts | 172° |
| 2026-05-01 11:47 | 41.59353 | 22.40920 | 27369 ft | 436 kts | 172° |
| 2026-05-01 11:47 | 41.56405 | 22.41603 | 26825 ft | 432 kts | 172° |
| 2026-05-01 11:47 | 41.53442 | 22.42288 | 26269 ft | 429 kts | 172° |
| 2026-05-01 11:47 | 41.50473 | 22.42975 | 25701 ft | 425 kts | 171° |
| 2026-05-01 11:48 | 41.47533 | 22.43653 | 25138 ft | 422 kts | 172° |
| 2026-05-01 11:48 | 41.44639 | 22.44321 | 24572 ft | 419 kts | 172° |
| 2026-05-01 11:48 | 41.41768 | 22.44983 | 24012 ft | 416 kts | 171° |
| 2026-05-01 11:48 | 41.38908 | 22.45640 | 23445 ft | 413 kts | 171° |
| 2026-05-01 11:49 | 41.36044 | 22.46300 | 22869 ft | 411 kts | 171° |
| 2026-05-01 11:49 | 41.33247 | 22.46945 | 22302 ft | 408 kts | 171° |
| 2026-05-01 11:49 | 41.30450 | 22.47589 | 21759 ft | 405 kts | 171° |
| 2026-05-01 11:49 | 41.27640 | 22.48238 | 21212 ft | 401 kts | 171° |
| 2026-05-01 11:50 | 41.24896 | 22.48870 | 20673 ft | 398 kts | 171° |
| 2026-05-01 11:50 | 41.22155 | 22.49500 | 20137 ft | 395 kts | 171° |
| 2026-05-01 11:50 | 41.19460 | 22.50119 | 19610 ft | 392 kts | 171° |
| 2026-05-01 11:50 | 41.16769 | 22.50735 | 19087 ft | 389 kts | 171° |
| 2026-05-01 11:51 | 41.14093 | 22.51342 | 18563 ft | 387 kts | 171° |
| 2026-05-01 11:51 | 41.11449 | 22.51930 | 18048 ft | 384 kts | 171° |
| 2026-05-01 11:51 | 41.08810 | 22.52521 | 17537 ft | 381 kts | 171° |
| 2026-05-01 11:51 | 41.06158 | 22.53119 | 17018 ft | 379 kts | 171° |
| 2026-05-01 11:52 | 41.03500 | 22.53721 | 16493 ft | 377 kts | 171° |
| 2026-05-01 11:52 | 41.00932 | 22.54302 | 15980 ft | 375 kts | 171° |
| 2026-05-01 11:52 | 40.98355 | 22.54887 | 15202 ft | 377 kts | 171° |
| 2026-05-01 11:52 | 40.95742 | 22.55481 | 14333 ft | 370 kts | 171° |
| 2026-05-01 11:53 | 40.93201 | 22.56058 | 13486 ft | 362 kts | 171° |
| 2026-05-01 11:53 | 40.90726 | 22.56617 | 12646 ft | 354 kts | 171° |
| 2026-05-01 11:53 | 40.88313 | 22.57151 | 11810 ft | 347 kts | 171° |
| 2026-05-01 11:53 | 40.85972 | 22.57653 | 10976 ft | 340 kts | 171° |
| 2026-05-01 11:54 | 40.83646 | 22.58136 | 10140 ft | 334 kts | 171° |
| 2026-05-01 11:54 | 40.81369 | 22.58596 | 9415 ft | 325 kts | 171° |
| 2026-05-01 11:54 | 40.79145 | 22.59029 | 8698 ft | 316 kts | 171° |
| 2026-05-01 11:54 | 40.76971 | 22.59428 | 7978 ft | 309 kts | 171° |
| 2026-05-01 11:55 | 40.74824 | 22.59802 | 7252 ft | 303 kts | 171° |
| 2026-05-01 11:55 | 40.72740 | 22.60147 | 6541 ft | 298 kts | 171° |
| 2026-05-01 11:55 | 40.70707 | 22.60467 | 5978 ft | 287 kts | 172° |
| 2026-05-01 11:55 | 40.68740 | 22.60753 | 5574 ft | 272 kts | 172° |
| 2026-05-01 11:56 | 40.66858 | 22.61029 | 5484 ft | 268 kts | 172° |
| 2026-05-01 11:56 | 40.65004 | 22.61392 | 5474 ft | 266 kts | 162° |
| 2026-05-01 11:56 | 40.63232 | 22.62184 | 5479 ft | 265 kts | 157° |
| 2026-05-01 11:56 | 40.61472 | 22.63106 | 5484 ft | 265 kts | 155° |
| 2026-05-01 11:57 | 40.59766 | 22.64019 | 5479 ft | 265 kts | 156° |
| 2026-05-01 11:57 | 40.58032 | 22.64953 | 5479 ft | 266 kts | 155° |
| 2026-05-01 11:57 | 40.56356 | 22.65957 | 5465 ft | 264 kts | 145° |
| 2026-05-01 11:57 | 40.55105 | 22.67681 | 5458 ft | 254 kts | 116° |
| 2026-05-01 11:58 | 40.54705 | 22.69862 | 5452 ft | 234 kts | 84° |
| 2026-05-01 11:58 | 40.55213 | 22.71799 | 5464 ft | 221 kts | 52° |
| 2026-05-01 11:58 | 40.57939 | 22.73700 | 5491 ft | 226 kts | 17° |
| 2026-05-01 11:59 | 40.59475 | 22.74242 | 5481 ft | 227 kts | 16° |
| 2026-05-01 11:59 | 40.61021 | 22.74758 | 5230 ft | 227 kts | 15° |
| 2026-05-01 11:59 | 40.62563 | 22.75271 | 5005 ft | 226 kts | 16° |
| 2026-05-01 12:00 | 40.65647 | 22.76306 | 4544 ft | 226 kts | 16° |
| 2026-05-01 12:00 | 40.67177 | 22.76827 | 4316 ft | 225 kts | 15° |
| 2026-05-01 12:00 | 40.70318 | 22.77901 | 3848 ft | 224 kts | 16° |
| 2026-05-01 12:01 | 40.71864 | 22.78433 | 3616 ft | 223 kts | 15° |
| 2026-05-01 12:01 | 40.73382 | 22.78959 | 3492 ft | 222 kts | 16° |
| 2026-05-01 12:01 | 40.74913 | 22.79492 | 3490 ft | 223 kts | 16° |
| 2026-05-01 12:01 | 40.76473 | 22.80035 | 3483 ft | 223 kts | 16° |
| 2026-05-01 12:02 | 40.78032 | 22.80578 | 3483 ft | 223 kts | 16° |
| 2026-05-01 12:02 | 40.79488 | 22.81331 | 3453 ft | 222 kts | 38° |
| 2026-05-01 12:02 | 40.80415 | 22.82972 | 3451 ft | 220 kts | 76° |
| 2026-05-01 12:02 | 40.80397 | 22.85028 | 3480 ft | 221 kts | 106° |
| 2026-05-01 12:03 | 40.79627 | 22.86768 | 3344 ft | 220 kts | 139° |
| 2026-05-01 12:03 | 40.78280 | 22.87803 | 3240 ft | 222 kts | 155° |
| 2026-05-01 12:03 | 40.76879 | 22.88654 | 3104 ft | 211 kts | 156° |
| 2026-05-01 12:03 | 40.75571 | 22.89446 | 3060 ft | 193 kts | 156° |
| 2026-05-01 12:04 | 40.74331 | 22.90034 | 2924 ft | 179 kts | 166° |
| 2026-05-01 12:04 | 40.73150 | 22.90405 | 2729 ft | 170 kts | 168° |
| 2026-05-01 12:04 | 40.72020 | 22.90734 | 2617 ft | 159 kts | 169° |
| 2026-05-01 12:04 | 40.70925 | 22.91061 | 2573 ft | 159 kts | 168° |
| 2026-05-01 12:05 | 40.69825 | 22.91400 | 2517 ft | 157 kts | 167° |
| 2026-05-01 12:05 | 40.67679 | 22.92081 | 2492 ft | 156 kts | 167° |
| 2026-05-01 12:05 | 40.66620 | 22.92421 | 2466 ft | 148 kts | 166° |
| 2026-05-01 12:06 | 40.65629 | 22.92739 | 2462 ft | 142 kts | 166° |
| 2026-05-01 12:06 | 40.64648 | 22.93055 | 2333 ft | 142 kts | 167° |
| 2026-05-01 12:06 | 40.63657 | 22.93373 | 2146 ft | 142 kts | 167° |
| 2026-05-01 12:06 | 40.62657 | 22.93694 | 1955 ft | 142 kts | 167° |
| 2026-05-01 12:07 | 40.61703 | 22.93999 | 1761 ft | 141 kts | 167° |
| 2026-05-01 12:07 | 40.60729 | 22.94309 | 1572 ft | 140 kts | 167° |
| 2026-05-01 12:07 | 40.59759 | 22.94618 | 1381 ft | 140 kts | 166° |
| 2026-05-01 12:07 | 40.58776 | 22.94930 | 1185 ft | 140 kts | 167° |
| 2026-05-01 12:08 | 40.57811 | 22.95238 | 996 ft | 140 kts | 167° |
| 2026-05-01 12:08 | 40.56849 | 22.95546 | 806 ft | 140 kts | 167° |
| 2026-05-01 12:08 | 40.55854 | 22.95875 | 600 ft | 140 kts | 167° |
| 2026-05-01 12:08 | 40.54878 | 22.96194 | 397 ft | 140 kts | 167° |
| 2026-05-01 12:09 | 40.53931 | 22.96489 | 235 ft | 141 kts | 167° |
| 2026-05-01 12:09 | 40.52951 | 22.96788 | 49 ft | 141 kts | 167° |
| 2026-05-01 12:09 | 40.52067 | 22.97063 | 9 ft | 93 kts | 167° |
| 2026-05-01 12:09 | 40.51718 | 22.97174 | 8 ft | 17 kts | 165° |
| 2026-05-01 12:10 | 40.51595 | 22.97214 | 8 ft | 18 kts | 167° |
| 2026-05-01 12:10 | 40.51516 | 22.97343 | 11 ft | 5 kts | 78° |
| 2026-05-01 12:10 | 40.51518 | 22.97357 | 11 ft | 0 kts | 78° |
| 2026-05-01 12:11 | 40.51572 | 22.97398 | 10 ft | 14 kts | 359° |
| 2026-05-01 12:11 | 40.51689 | 22.97366 | 8 ft | 17 kts | 345° |
| 2026-05-01 12:11 | 40.51816 | 22.97325 | 8 ft | 18 kts | 347° |
| 2026-05-01 12:12 | 40.51951 | 22.97282 | 8 ft | 19 kts | 346° |
| 2026-05-01 12:12 | 40.52091 | 22.97236 | 8 ft | 20 kts | 346° |
| 2026-05-01 12:12 | 40.52224 | 22.97193 | 8 ft | 16 kts | 347° |
| 2026-05-01 12:12 | 40.52320 | 22.97165 | 8 ft | 13 kts | 352° |
| 2026-05-01 12:13 | 40.52373 | 22.97195 | 8 ft | 10 kts | 58° |
| 2026-05-01 12:13 | 40.52384 | 22.97254 | 8 ft | 2 kts | 83° |
| 2026-05-01 12:13 | 40.52396 | 22.97298 | 8 ft | 6 kts | 75° |
| 2026-05-01 12:13 | 40.52386 | 22.97362 | 8 ft | 8 kts | 127° |
| 2026-05-01 12:14 | 40.52367 | 22.97397 | 8 ft | 4 kts | 102° |
| 2026-05-01 12:14 | 40.52384 | 22.97437 | 8 ft | 6 kts | 46° |
| 2026-05-01 12:14 | 40.52394 | 22.97451 | 8 ft | 0 kts | 46° |